sensor_id;sensor_type;location;lat;lon;timestamp;pressure;altitude;pressure_sealevel;temperature;humidity
75157;BME280;63736;50.076;8.198;2023-05-10T00:01:23;98778.97;;;13.55;100.00
75157;BME280;63736;50.076;8.198;2023-05-10T00:03:49;98783.69;;;13.53;100.00
75157;BME280;63736;50.076;8.198;2023-05-10T00:06:14;98783.16;;;13.49;100.00
75157;BME280;63736;50.076;8.198;2023-05-10T00:08:39;98783.50;;;13.46;100.00
75157;BME280;63736;50.076;8.198;2023-05-10T00:11:04;98782.00;;;13.44;100.00
75157;BME280;63736;50.076;8.198;2023-05-10T00:13:30;98781.47;;;13.40;100.00
75157;BME280;63736;50.076;8.198;2023-05-10T00:15:56;98780.97;;;13.36;100.00
75157;BME280;63736;50.076;8.198;2023-05-10T00:18:21;98786.63;;;13.33;100.00
75157;BME280;63736;50.076;8.198;2023-05-10T00:20:46;98792.16;;;13.32;100.00
75157;BME280;63736;50.076;8.198;2023-05-10T00:23:12;98794.00;;;13.31;100.00
75157;BME280;63736;50.076;8.198;2023-05-10T00:25:37;98787.81;;;13.31;100.00
75157;BME280;63736;50.076;8.198;2023-05-10T00:28:02;98785.94;;;13.31;100.00
75157;BME280;63736;50.076;8.198;2023-05-10T00:30:28;98792.31;;;13.30;100.00
75157;BME280;63736;50.076;8.198;2023-05-10T00:32:53;98796.03;;;13.29;100.00
75157;BME280;63736;50.076;8.198;2023-05-10T00:35:18;98792.66;;;13.27;100.00
75157;BME280;63736;50.076;8.198;2023-05-10T00:37:44;98792.81;;;13.26;100.00
75157;BME280;63736;50.076;8.198;2023-05-10T00:40:10;98797.50;;;13.23;100.00
75157;BME280;63736;50.076;8.198;2023-05-10T00:42:35;98792.47;;;13.20;100.00
75157;BME280;63736;50.076;8.198;2023-05-10T00:45:01;98798.00;;;13.19;100.00
75157;BME280;63736;50.076;8.198;2023-05-10T00:47:27;98799.16;;;13.16;100.00
75157;BME280;63736;50.076;8.198;2023-05-10T00:49:52;98796.97;;;13.12;100.00
75157;BME280;63736;50.076;8.198;2023-05-10T00:52:18;98800.81;;;13.09;100.00
75157;BME280;63736;50.076;8.198;2023-05-10T00:54:43;98801.97;;;13.06;100.00
75157;BME280;63736;50.076;8.198;2023-05-10T00:57:08;98801.31;;;13.04;100.00
75157;BME280;63736;50.076;8.198;2023-05-10T00:59:34;98791.75;;;13.02;100.00
75157;BME280;63736;50.076;8.198;2023-05-10T01:01:59;98800.97;;;12.99;100.00
75157;BME280;63736;50.076;8.198;2023-05-10T01:04:25;98801.97;;;12.98;100.00
75157;BME280;63736;50.076;8.198;2023-05-10T01:06:51;98808.16;;;12.99;100.00
75157;BME280;63736;50.076;8.198;2023-05-10T01:09:17;98798.41;;;12.98;100.00
75157;BME280;63736;50.076;8.198;2023-05-10T01:11:43;98795.75;;;12.98;100.00
75157;BME280;63736;50.076;8.198;2023-05-10T01:14:09;98798.59;;;12.96;100.00
75157;BME280;63736;50.076;8.198;2023-05-10T01:16:38;98797.75;;;12.96;100.00
75157;BME280;63736;50.076;8.198;2023-05-10T01:19:07;98810.31;;;12.95;100.00
75157;BME280;63736;50.076;8.198;2023-05-10T01:21:45;98803.44;;;12.93;100.00
75157;BME280;63736;50.076;8.198;2023-05-10T01:30:01;98803.94;;;12.88;100.00
75157;BME280;63736;50.076;8.198;2023-05-10T01:32:37;98807.59;;;12.87;100.00
75157;BME280;63736;50.076;8.198;2023-05-10T01:38:51;98811.44;;;12.84;100.00
75157;BME280;63736;50.076;8.198;2023-05-10T01:41:17;98813.47;;;12.82;100.00
75157;BME280;63736;50.076;8.198;2023-05-10T01:43:54;98807.25;;;12.82;100.00
75157;BME280;63736;50.076;8.198;2023-05-10T01:46:32;98808.25;;;12.81;100.00
75157;BME280;63736;50.076;8.198;2023-05-10T01:49:00;98816.44;;;12.79;100.00
75157;BME280;63736;50.076;8.198;2023-05-10T01:51:31;98810.25;;;12.79;100.00
75157;BME280;63736;50.076;8.198;2023-05-10T01:54:02;98814.75;;;12.78;100.00
75157;BME280;63736;50.076;8.198;2023-05-10T01:56:32;98814.09;;;12.76;100.00
75157;BME280;63736;50.076;8.198;2023-05-10T01:58:59;98816.09;;;12.74;100.00
75157;BME280;63736;50.076;8.198;2023-05-10T02:01:26;98808.22;;;12.72;100.00
75157;BME280;63736;50.076;8.198;2023-05-10T02:03:53;98815.56;;;12.70;100.00
75157;BME280;63736;50.076;8.198;2023-05-10T02:06:22;98822.09;;;12.68;100.00
75157;BME280;63736;50.076;8.198;2023-05-10T02:08:50;98824.94;;;12.66;100.00
75157;BME280;63736;50.076;8.198;2023-05-10T02:11:17;98828.75;;;12.64;100.00
75157;BME280;63736;50.076;8.198;2023-05-10T02:13:44;98831.59;;;12.62;100.00
75157;BME280;63736;50.076;8.198;2023-05-10T02:16:12;98835.28;;;12.61;100.00
75157;BME280;63736;50.076;8.198;2023-05-10T02:18:39;98834.44;;;12.61;100.00
75157;BME280;63736;50.076;8.198;2023-05-10T02:21:06;98840.63;;;12.61;100.00
75157;BME280;63736;50.076;8.198;2023-05-10T02:23:34;98843.47;;;12.60;100.00
75157;BME280;63736;50.076;8.198;2023-05-10T02:26:01;98844.47;;;12.59;100.00
75157;BME280;63736;50.076;8.198;2023-05-10T02:28:27;98845.50;;;12.58;100.00
75157;BME280;63736;50.076;8.198;2023-05-10T02:30:54;98839.44;;;12.55;100.00
75157;BME280;63736;50.076;8.198;2023-05-10T02:33:20;98843.97;;;12.55;100.00
75157;BME280;63736;50.076;8.198;2023-05-10T02:35:47;98842.28;;;12.54;100.00
75157;BME280;63736;50.076;8.198;2023-05-10T02:38:14;98842.44;;;12.52;100.00
75157;BME280;63736;50.076;8.198;2023-05-10T02:40:41;98840.94;;;12.50;100.00
75157;BME280;63736;50.076;8.198;2023-05-10T02:43:09;98853.47;;;12.49;100.00
75157;BME280;63736;50.076;8.198;2023-05-10T02:45:38;98850.94;;;12.48;100.00
75157;BME280;63736;50.076;8.198;2023-05-10T02:48:04;98849.25;;;12.47;100.00
75157;BME280;63736;50.076;8.198;2023-05-10T02:50:30;98857.31;;;12.47;100.00
75157;BME280;63736;50.076;8.198;2023-05-10T02:53:00;98850.25;;;12.46;100.00
75157;BME280;63736;50.076;8.198;2023-05-10T02:55:38;98851.94;;;12.47;100.00
75157;BME280;63736;50.076;8.198;2023-05-10T02:58:05;98851.13;;;12.46;100.00
75157;BME280;63736;50.076;8.198;2023-05-10T03:00:30;98853.78;;;12.46;100.00
75157;BME280;63736;50.076;8.198;2023-05-10T03:02:56;98857.31;;;12.47;100.00
75157;BME280;63736;50.076;8.198;2023-05-10T03:05:21;98850.25;;;12.46;100.00
75157;BME280;63736;50.076;8.198;2023-05-10T03:07:47;98850.94;;;12.48;100.00
75157;BME280;63736;50.076;8.198;2023-05-10T03:10:13;98854.47;;;12.48;100.00
75157;BME280;63736;50.076;8.198;2023-05-10T03:15:22;98858.00;;;12.49;100.00
75157;BME280;63736;50.076;8.198;2023-05-10T03:17:59;98855.31;;;12.49;100.00
75157;BME280;63736;50.076;8.198;2023-05-10T03:20:35;98860.66;;;12.49;100.00
75157;BME280;63736;50.076;8.198;2023-05-10T03:25:43;98860.34;;;12.52;100.00
75157;BME280;63736;50.076;8.198;2023-05-10T03:28:09;98853.00;;;12.54;100.00
75157;BME280;63736;50.076;8.198;2023-05-10T03:30:35;98861.03;;;12.54;100.00
75157;BME280;63736;50.076;8.198;2023-05-10T03:33:07;98858.38;;;12.54;100.00
75157;BME280;63736;50.076;8.198;2023-05-10T03:35:33;98859.88;;;12.56;100.00
75157;BME280;63736;50.076;8.198;2023-05-10T03:37:58;98861.72;;;12.56;100.00
75157;BME280;63736;50.076;8.198;2023-05-10T03:40:24;98862.56;;;12.56;100.00
75157;BME280;63736;50.076;8.198;2023-05-10T03:42:51;98873.94;;;12.59;100.00
75157;BME280;63736;50.076;8.198;2023-05-10T03:45:16;98876.50;;;12.60;100.00
75157;BME280;63736;50.076;8.198;2023-05-10T03:47:41;98873.81;;;12.60;100.00
75157;BME280;63736;50.076;8.198;2023-05-10T03:50:07;98873.66;;;12.62;100.00
75157;BME280;63736;50.076;8.198;2023-05-10T03:52:32;98878.16;;;12.61;100.00
75157;BME280;63736;50.076;8.198;2023-05-10T03:54:57;98882.50;;;12.62;100.00
75157;BME280;63736;50.076;8.198;2023-05-10T03:57:23;98875.31;;;12.63;100.00
75157;BME280;63736;50.076;8.198;2023-05-10T03:59:48;98878.16;;;12.61;100.00
75157;BME280;63736;50.076;8.198;2023-05-10T04:02:13;98877.97;;;12.63;100.00
75157;BME280;63736;50.076;8.198;2023-05-10T04:04:39;98870.13;;;12.61;100.00
75157;BME280;63736;50.076;8.198;2023-05-10T04:07:04;98871.13;;;12.60;100.00
75157;BME280;63736;50.076;8.198;2023-05-10T04:09:29;98877.47;;;12.59;100.00
75157;BME280;63736;50.076;8.198;2023-05-10T04:11:55;98874.09;;;12.57;100.00
75157;BME280;63736;50.076;8.198;2023-05-10T04:14:20;98875.63;;;12.60;100.00
75157;BME280;63736;50.076;8.198;2023-05-10T04:16:45;98872.94;;;12.60;100.00
75157;BME280;63736;50.076;8.198;2023-05-10T04:19:11;98872.78;;;12.61;100.00
75157;BME280;63736;50.076;8.198;2023-05-10T04:21:36;98877.97;;;12.63;100.00
75157;BME280;63736;50.076;8.198;2023-05-10T04:24:02;98870.66;;;12.65;100.00
75157;BME280;63736;50.076;8.198;2023-05-10T04:26:27;98882.88;;;12.67;100.00
75157;BME280;63736;50.076;8.198;2023-05-10T04:28:52;98879.22;;;12.68;100.00
75157;BME280;63736;50.076;8.198;2023-05-10T04:31:17;98881.56;;;12.71;100.00
75157;BME280;63736;50.076;8.198;2023-05-10T04:33:43;98887.63;;;12.73;100.00
75157;BME280;63736;50.076;8.198;2023-05-10T04:36:08;98886.47;;;12.76;100.00
75157;BME280;63736;50.076;8.198;2023-05-10T04:38:34;98887.00;;;12.80;100.00
75157;BME280;63736;50.076;8.198;2023-05-10T04:41:09;98893.72;;;12.84;100.00
75157;BME280;63736;50.076;8.198;2023-05-10T04:43:35;98890.03;;;12.85;100.00
75157;BME280;63736;50.076;8.198;2023-05-10T04:46:01;98892.38;;;12.88;100.00
75157;BME280;63736;50.076;8.198;2023-05-10T04:48:27;98899.44;;;12.89;100.00
75157;BME280;63736;50.076;8.198;2023-05-10T04:50:52;98912.84;;;12.89;100.00
75157;BME280;63736;50.076;8.198;2023-05-10T04:53:17;98917.34;;;12.88;100.00
75157;BME280;63736;50.076;8.198;2023-05-10T04:55:43;98916.34;;;12.89;100.00
75157;BME280;63736;50.076;8.198;2023-05-10T04:58:08;98916.50;;;12.88;100.00
75157;BME280;63736;50.076;8.198;2023-05-10T05:00:33;98915.69;;;12.87;100.00
75157;BME280;63736;50.076;8.198;2023-05-10T05:02:59;98920.19;;;12.87;100.00
75157;BME280;63736;50.076;8.198;2023-05-10T05:05:24;98920.19;;;12.87;100.00
75157;BME280;63736;50.076;8.198;2023-05-10T05:07:50;98921.03;;;12.87;100.00
75157;BME280;63736;50.076;8.198;2023-05-10T05:10:15;98917.34;;;12.88;100.00
75157;BME280;63736;50.076;8.198;2023-05-10T05:12:41;98910.31;;;12.87;100.00
75157;BME280;63736;50.076;8.198;2023-05-10T05:15:06;98911.84;;;12.90;100.00
75157;BME280;63736;50.076;8.198;2023-05-10T05:17:34;98906.47;;;12.90;100.00
75157;BME280;63736;50.076;8.198;2023-05-10T05:19:59;98903.81;;;12.90;100.00
75157;BME280;63736;50.076;8.198;2023-05-10T05:22:24;98912.84;;;12.89;100.00
75157;BME280;63736;50.076;8.198;2023-05-10T05:24:56;98909.00;;;12.92;100.00
75157;BME280;63736;50.076;8.198;2023-05-10T05:27:23;98910.19;;;12.97;100.00
75157;BME280;63736;50.076;8.198;2023-05-10T05:29:55;98912.75;;;13.07;100.00
75157;BME280;63736;50.076;8.198;2023-05-10T05:32:21;98915.50;;;13.23;100.00
75157;BME280;63736;50.076;8.198;2023-05-10T05:34:47;98918.63;;;13.45;100.00
75157;BME280;63736;50.076;8.198;2023-05-10T05:37:16;98927.94;;;13.76;100.00
75157;BME280;63736;50.076;8.198;2023-05-10T05:39:42;98917.94;;;14.02;100.00
75157;BME280;63736;50.076;8.198;2023-05-10T05:42:09;98919.94;;;14.25;100.00
75157;BME280;63736;50.076;8.198;2023-05-10T05:44:34;98916.09;;;14.44;100.00
75157;BME280;63736;50.076;8.198;2023-05-10T05:46:59;98916.41;;;14.74;100.00
75157;BME280;63736;50.076;8.198;2023-05-10T05:49:25;98916.88;;;15.02;100.00
75157;BME280;63736;50.076;8.198;2023-05-10T05:51:50;98916.41;;;15.30;100.00
75157;BME280;63736;50.076;8.198;2023-05-10T05:54:15;98924.59;;;15.77;100.00
75157;BME280;63736;50.076;8.198;2023-05-10T05:56:41;98914.13;;;16.37;100.00
75157;BME280;63736;50.076;8.198;2023-05-10T05:59:06;98920.94;;;17.82;100.00
75157;BME280;63736;50.076;8.198;2023-05-10T06:01:31;98926.50;;;19.59;100.00
75157;BME280;63736;50.076;8.198;2023-05-10T06:03:56;98924.81;;;21.07;100.00
75157;BME280;63736;50.076;8.198;2023-05-10T06:06:22;98918.59;;;22.04;100.00
75157;BME280;63736;50.076;8.198;2023-05-10T06:08:47;98923.75;;;22.12;100.00
75157;BME280;63736;50.076;8.198;2023-05-10T06:11:12;98928.41;;;21.66;100.00
75157;BME280;63736;50.076;8.198;2023-05-10T06:13:37;98929.59;;;21.84;100.00
75157;BME280;63736;50.076;8.198;2023-05-10T06:16:03;98924.38;;;22.14;100.00
75157;BME280;63736;50.076;8.198;2023-05-10T06:18:28;98923.63;;;22.00;94.73
75157;BME280;63736;50.076;8.198;2023-05-10T06:20:53;98931.59;;;21.56;95.27
75157;BME280;63736;50.076;8.198;2023-05-10T06:23:19;98929.19;;;21.08;96.17
75157;BME280;63736;50.076;8.198;2023-05-10T06:25:44;98931.03;;;21.21;94.68
75157;BME280;63736;50.076;8.198;2023-05-10T06:28:09;98935.84;;;21.25;91.35
75157;BME280;63736;50.076;8.198;2023-05-10T06:30:36;98948.44;;;20.86;93.14
75157;BME280;63736;50.076;8.198;2023-05-10T06:33:01;98946.09;;;20.36;98.16
75157;BME280;63736;50.076;8.198;2023-05-10T06:35:28;98958.28;;;19.85;100.00
75157;BME280;63736;50.076;8.198;2023-05-10T06:37:53;98961.44;;;19.47;100.00
75157;BME280;63736;50.076;8.198;2023-05-10T06:40:18;98957.78;;;19.26;100.00
75157;BME280;63736;50.076;8.198;2023-05-10T06:42:45;98961.94;;;19.22;100.00
75157;BME280;63736;50.076;8.198;2023-05-10T06:45:11;98963.56;;;19.17;100.00
75157;BME280;63736;50.076;8.198;2023-05-10T06:47:36;98961.56;;;19.32;100.00
75157;BME280;63736;50.076;8.198;2023-05-10T06:50:01;98976.13;;;20.28;100.00
75157;BME280;63736;50.076;8.198;2023-05-10T06:52:26;98971.56;;;21.29;98.35
75157;BME280;63736;50.076;8.198;2023-05-10T06:54:52;98970.88;;;21.60;92.20
75157;BME280;63736;50.076;8.198;2023-05-10T06:57:17;98970.09;;;22.37;85.85
75157;BME280;63736;50.076;8.198;2023-05-10T06:59:43;98963.78;;;23.38;76.30
75157;BME280;63736;50.076;8.198;2023-05-10T07:02:08;98973.63;;;23.57;73.34
75157;BME280;63736;50.076;8.198;2023-05-10T07:04:33;98971.38;;;23.36;72.98
75157;BME280;63736;50.076;8.198;2023-05-10T07:06:59;98970.28;;;23.37;69.82
75157;BME280;63736;50.076;8.198;2023-05-10T07:09:24;98977.09;;;24.02;66.32
75157;BME280;63736;50.076;8.198;2023-05-10T07:11:50;98979.63;;;25.00;62.58
75157;BME280;63736;50.076;8.198;2023-05-10T07:14:15;98976.50;;;25.67;58.96
75157;BME280;63736;50.076;8.198;2023-05-10T07:16:40;98980.44;;;25.24;59.96
75157;BME280;63736;50.076;8.198;2023-05-10T07:19:05;98991.09;;;24.36;63.15
75157;BME280;63736;50.076;8.198;2023-05-10T07:21:31;98992.88;;;23.63;67.42
75157;BME280;63736;50.076;8.198;2023-05-10T07:23:57;98986.25;;;22.89;71.44
75157;BME280;63736;50.076;8.198;2023-05-10T07:26:22;98998.97;;;22.38;76.87
75157;BME280;63736;50.076;8.198;2023-05-10T07:28:48;98992.09;;;21.90;79.12
75157;BME280;63736;50.076;8.198;2023-05-10T07:31:13;98999.50;;;21.50;80.30
75157;BME280;63736;50.076;8.198;2023-05-10T07:33:38;99001.22;;;21.17;81.44
75157;BME280;63736;50.076;8.198;2023-05-10T07:36:03;99002.75;;;20.79;83.28
75157;BME280;63736;50.076;8.198;2023-05-10T07:38:29;99005.38;;;20.39;86.47
75157;BME280;63736;50.076;8.198;2023-05-10T07:40:54;99014.66;;;20.03;87.81
75157;BME280;63736;50.076;8.198;2023-05-10T07:43:19;99017.38;;;19.61;89.24
75157;BME280;63736;50.076;8.198;2023-05-10T07:45:45;99013.97;;;19.18;90.50
75157;BME280;63736;50.076;8.198;2023-05-10T07:48:10;99015.50;;;18.77;92.56
75157;BME280;63736;50.076;8.198;2023-05-10T07:50:35;99018.53;;;18.45;94.23
75157;BME280;63736;50.076;8.198;2023-05-10T07:53:00;99023.06;;;18.23;97.38
75157;BME280;63736;50.076;8.198;2023-05-10T07:55:26;99020.97;;;18.04;99.11
75157;BME280;63736;50.076;8.198;2023-05-10T07:57:51;99020.50;;;17.85;100.00
75157;BME280;63736;50.076;8.198;2023-05-10T08:00:18;99020.72;;;17.68;100.00
75157;BME280;63736;50.076;8.198;2023-05-10T08:02:44;99022.22;;;17.56;100.00
75157;BME280;63736;50.076;8.198;2023-05-10T08:05:09;99029.75;;;17.46;100.00
75157;BME280;63736;50.076;8.198;2023-05-10T08:07:35;99025.72;;;17.27;100.00
75157;BME280;63736;50.076;8.198;2023-05-10T08:10:02;99028.44;;;17.12;100.00
75157;BME280;63736;50.076;8.198;2023-05-10T08:12:27;99027.56;;;17.11;100.00
75157;BME280;63736;50.076;8.198;2023-05-10T08:14:53;99020.63;;;17.17;100.00
75157;BME280;63736;50.076;8.198;2023-05-10T08:17:18;99024.91;;;17.26;100.00
75157;BME280;63736;50.076;8.198;2023-05-10T08:19:43;99018.47;;;17.42;100.00
75157;BME280;63736;50.076;8.198;2023-05-10T08:22:09;99017.91;;;17.62;100.00
75157;BME280;63736;50.076;8.198;2023-05-10T08:24:34;99025.66;;;17.95;100.00
75157;BME280;63736;50.076;8.198;2023-05-10T08:27:03;99030.59;;;18.28;100.00
75157;BME280;63736;50.076;8.198;2023-05-10T08:29:28;99022.53;;;18.49;100.00
75157;BME280;63736;50.076;8.198;2023-05-10T08:31:54;99026.84;;;18.65;100.00
75157;BME280;63736;50.076;8.198;2023-05-10T08:34:19;99019.06;;;18.84;100.00
75157;BME280;63736;50.076;8.198;2023-05-10T08:36:45;99025.06;;;19.01;98.41
75157;BME280;63736;50.076;8.198;2023-05-10T08:39:10;99028.16;;;19.20;96.03
75157;BME280;63736;50.076;8.198;2023-05-10T08:41:38;99023.47;;;19.35;93.36
75157;BME280;63736;50.076;8.198;2023-05-10T08:44:04;99028.53;;;19.52;92.65
75157;BME280;63736;50.076;8.198;2023-05-10T08:46:33;99031.41;;;19.78;92.26
75157;BME280;63736;50.076;8.198;2023-05-10T08:49:02;99029.63;;;19.92;89.88
75157;BME280;63736;50.076;8.198;2023-05-10T08:51:31;99034.41;;;19.90;88.91
75157;BME280;63736;50.076;8.198;2023-05-10T08:53:57;99042.47;;;19.77;89.35
75157;BME280;63736;50.076;8.198;2023-05-10T08:56:23;99041.09;;;19.59;89.70
75157;BME280;63736;50.076;8.198;2023-05-10T08:58:50;99041.31;;;19.29;91.87
75157;BME280;63736;50.076;8.198;2023-05-10T09:01:16;99044.72;;;19.10;95.67
75157;BME280;63736;50.076;8.198;2023-05-10T09:03:41;99050.25;;;18.95;97.63
75157;BME280;63736;50.076;8.198;2023-05-10T09:06:07;99050.66;;;18.98;99.30
75157;BME280;63736;50.076;8.198;2023-05-10T09:08:33;99044.78;;;19.45;98.84
75157;BME280;63736;50.076;8.198;2023-05-10T09:11:00;99046.53;;;20.56;91.40
75157;BME280;63736;50.076;8.198;2023-05-10T09:13:26;99048.66;;;21.01;85.92
75157;BME280;63736;50.076;8.198;2023-05-10T09:15:52;99053.25;;;21.54;82.46
75157;BME280;63736;50.076;8.198;2023-05-10T09:18:18;99051.97;;;22.29;76.13
75157;BME280;63736;50.076;8.198;2023-05-10T09:20:43;99050.97;;;23.19;70.03
75157;BME280;63736;50.076;8.198;2023-05-10T09:23:08;99049.38;;;23.74;65.59
75157;BME280;63736;50.076;8.198;2023-05-10T09:25:34;99043.84;;;24.48;61.08
75157;BME280;63736;50.076;8.198;2023-05-10T09:27:59;99040.28;;;25.44;55.72
75157;BME280;63736;50.076;8.198;2023-05-10T09:30:27;99033.63;;;25.52;52.66
75157;BME280;63736;50.076;8.198;2023-05-10T09:32:53;99052.22;;;25.79;50.77
75157;BME280;63736;50.076;8.198;2023-05-10T09:35:22;99056.94;;;24.88;53.62
75157;BME280;63736;50.076;8.198;2023-05-10T09:37:52;99061.25;;;23.61;58.15
75157;BME280;63736;50.076;8.198;2023-05-10T09:40:21;99069.72;;;22.32;61.20
75157;BME280;63736;50.076;8.198;2023-05-10T09:43:02;99079.81;;;21.12;66.12
75157;BME280;63736;50.076;8.198;2023-05-10T09:45:33;99070.84;;;20.23;72.29
75157;BME280;63736;50.076;8.198;2023-05-10T09:48:00;99068.44;;;19.64;77.28
75157;BME280;63736;50.076;8.198;2023-05-10T09:50:26;99069.84;;;19.25;80.91
75157;BME280;63736;50.076;8.198;2023-05-10T09:55:21;99067.66;;;19.14;84.07
75157;BME280;63736;50.076;8.198;2023-05-10T09:57:47;99073.63;;;19.31;83.81
75157;BME280;63736;50.076;8.198;2023-05-10T10:00:20;99074.78;;;19.78;82.67
75157;BME280;63736;50.076;8.198;2023-05-10T10:02:47;99071.63;;;20.17;78.49
75157;BME280;63736;50.076;8.198;2023-05-10T10:05:13;99072.34;;;20.45;72.61
75157;BME280;63736;50.076;8.198;2023-05-10T10:07:39;99080.50;;;20.45;72.11
75157;BME280;63736;50.076;8.198;2023-05-10T10:10:05;99080.94;;;20.56;71.81
75157;BME280;63736;50.076;8.198;2023-05-10T10:12:30;99080.38;;;20.74;70.25
75157;BME280;63736;50.076;8.198;2023-05-10T10:14:56;99079.34;;;20.88;68.31
75157;BME280;63736;50.076;8.198;2023-05-10T10:17:23;99078.34;;;21.16;66.43
75157;BME280;63736;50.076;8.198;2023-05-10T10:19:52;99067.44;;;21.43;62.70
75157;BME280;63736;50.076;8.198;2023-05-10T10:22:17;99070.81;;;21.38;59.79
75157;BME280;63736;50.076;8.198;2023-05-10T10:24:43;99066.16;;;21.79;59.88
75157;BME280;63736;50.076;8.198;2023-05-10T10:27:19;99077.91;;;22.25;56.73
75157;BME280;63736;50.076;8.198;2023-05-10T10:30:02;99070.78;;;22.37;54.48
75157;BME280;63736;50.076;8.198;2023-05-10T10:32:37;99079.34;;;22.41;55.40
75157;BME280;63736;50.076;8.198;2023-05-10T10:35:08;99068.56;;;22.59;54.22
75157;BME280;63736;50.076;8.198;2023-05-10T10:37:44;99071.72;;;22.56;52.50
75157;BME280;63736;50.076;8.198;2023-05-10T10:40:24;99087.00;;;22.57;51.56
75157;BME280;63736;50.076;8.198;2023-05-10T10:42:50;99078.13;;;22.23;50.66
75157;BME280;63736;50.076;8.198;2023-05-10T10:45:16;99084.44;;;22.17;51.81
75157;BME280;63736;50.076;8.198;2023-05-10T10:47:41;99085.66;;;22.28;51.97
75157;BME280;63736;50.076;8.198;2023-05-10T10:50:08;99095.63;;;22.48;51.35
75157;BME280;63736;50.076;8.198;2023-05-10T10:52:38;99089.78;;;22.44;49.51
75157;BME280;63736;50.076;8.198;2023-05-10T10:55:06;99084.19;;;22.25;50.46
75157;BME280;63736;50.076;8.198;2023-05-10T10:57:48;99077.34;;;22.16;51.73
75157;BME280;63736;50.076;8.198;2023-05-10T11:08:12;99086.63;;;22.47;49.92
75157;BME280;63736;50.076;8.198;2023-05-10T11:10:39;99095.00;;;22.46;48.46
75157;BME280;63736;50.076;8.198;2023-05-10T11:13:10;99090.84;;;22.43;48.06
75157;BME280;63736;50.076;8.198;2023-05-10T11:15:38;99089.59;;;22.32;47.49
75157;BME280;63736;50.076;8.198;2023-05-10T11:18:21;99085.84;;;22.40;47.88
75157;BME280;63736;50.076;8.198;2023-05-10T11:20:52;99094.00;;;22.40;47.40
75157;BME280;63736;50.076;8.198;2023-05-10T11:23:18;99090.59;;;22.44;47.58
75157;BME280;63736;50.076;8.198;2023-05-10T11:25:45;99091.88;;;22.42;47.75
75157;BME280;63736;50.076;8.198;2023-05-10T11:28:11;99082.47;;;22.38;47.92
75157;BME280;63736;50.076;8.198;2023-05-10T11:30:40;99093.81;;;22.28;48.61
75157;BME280;63736;50.076;8.198;2023-05-10T11:33:07;99097.19;;;22.17;49.29
75157;BME280;63736;50.076;8.198;2023-05-10T11:35:40;99097.84;;;22.12;49.79
75157;BME280;63736;50.076;8.198;2023-05-10T11:38:10;99091.97;;;22.15;49.82
75157;BME280;63736;50.076;8.198;2023-05-10T11:40:36;99095.72;;;22.21;49.12
75157;BME280;63736;50.076;8.198;2023-05-10T11:43:02;99090.34;;;22.07;48.51
75157;BME280;63736;50.076;8.198;2023-05-10T11:45:28;99094.25;;;22.18;48.77
75157;BME280;63736;50.076;8.198;2023-05-10T11:47:57;99088.34;;;22.35;46.98
75157;BME280;63736;50.076;8.198;2023-05-10T11:50:22;99096.69;;;22.47;46.44
75157;BME280;63736;50.076;8.198;2023-05-10T11:52:55;99091.47;;;22.45;45.17
75157;BME280;63736;50.076;8.198;2023-05-10T11:55:21;99098.34;;;22.48;45.05
75157;BME280;63736;50.076;8.198;2023-05-10T11:57:47;99082.56;;;22.63;45.17
75157;BME280;63736;50.076;8.198;2023-05-10T12:00:16;99091.59;;;22.57;44.33
75157;BME280;63736;50.076;8.198;2023-05-10T12:02:41;99083.88;;;22.54;45.10
75157;BME280;63736;50.076;8.198;2023-05-10T12:05:07;99092.56;;;22.69;44.54
75157;BME280;63736;50.076;8.198;2023-05-10T12:07:33;99090.19;;;22.80;44.66
75157;BME280;63736;50.076;8.198;2023-05-10T12:12:44;99094.28;;;22.64;44.25
75157;BME280;63736;50.076;8.198;2023-05-10T12:15:21;99095.59;;;22.54;44.28
75157;BME280;63736;50.076;8.198;2023-05-10T12:17:47;99106.53;;;22.34;44.28
75157;BME280;63736;50.076;8.198;2023-05-10T12:22:40;99114.84;;;22.01;46.48
75157;BME280;63736;50.076;8.198;2023-05-10T12:25:06;99120.56;;;21.72;47.69
75157;BME280;63736;50.076;8.198;2023-05-10T12:27:32;99118.47;;;21.61;48.46
75157;BME280;63736;50.076;8.198;2023-05-10T12:29:59;99120.16;;;21.55;48.63
75157;BME280;63736;50.076;8.198;2023-05-10T12:32:37;99120.97;;;21.62;48.09
75157;BME280;63736;50.076;8.198;2023-05-10T12:35:03;99127.66;;;21.73;48.26
75157;BME280;63736;50.076;8.198;2023-05-10T12:37:28;99118.25;;;21.76;47.20
75157;BME280;63736;50.076;8.198;2023-05-10T12:39:54;99127.25;;;21.70;46.92
75157;BME280;63736;50.076;8.198;2023-05-10T12:42:19;99132.69;;;21.70;46.98
75157;BME280;63736;50.076;8.198;2023-05-10T12:44:45;99132.47;;;21.71;47.37
75157;BME280;63736;50.076;8.198;2023-05-10T12:47:10;99128.69;;;21.79;46.71
75157;BME280;63736;50.076;8.198;2023-05-10T12:49:35;99129.75;;;21.65;46.43
75157;BME280;63736;50.076;8.198;2023-05-10T12:52:01;99132.06;;;21.54;46.62
75157;BME280;63736;50.076;8.198;2023-05-10T12:54:26;99140.00;;;21.36;46.19
75157;BME280;63736;50.076;8.198;2023-05-10T12:56:52;99147.50;;;21.34;46.85
75157;BME280;63736;50.076;8.198;2023-05-10T12:59:18;99145.59;;;21.27;47.36
75157;BME280;63736;50.076;8.198;2023-05-10T13:01:43;99152.72;;;21.28;47.95
75157;BME280;63736;50.076;8.198;2023-05-10T13:04:08;99152.31;;;21.32;47.15
75157;BME280;63736;50.076;8.198;2023-05-10T13:06:33;99142.91;;;21.41;47.16
75157;BME280;63736;50.076;8.198;2023-05-10T13:09:00;99150.84;;;21.49;47.41
75157;BME280;63736;50.076;8.198;2023-05-10T13:11:25;99141.06;;;21.68;47.36
75157;BME280;63736;50.076;8.198;2023-05-10T13:13:51;99150.00;;;21.89;47.30
75157;BME280;63736;50.076;8.198;2023-05-10T13:16:16;99142.06;;;21.74;46.80
75157;BME280;63736;50.076;8.198;2023-05-10T13:18:41;99139.16;;;21.49;46.89
75157;BME280;63736;50.076;8.198;2023-05-10T13:21:07;99133.91;;;21.34;47.63
75157;BME280;63736;50.076;8.198;2023-05-10T13:23:33;99142.06;;;21.40;48.78